sensor_id;sensor_type;location;lat;lon;timestamp;temperature;humidity
28632;DHT22;15818;45.534;5.292;2022-11-15T00:01:40;10.60;99.90
28632;DHT22;15818;45.534;5.292;2022-11-15T00:04:06;10.60;99.90
28632;DHT22;15818;45.534;5.292;2022-11-15T00:06:32;10.60;99.90
28632;DHT22;15818;45.534;5.292;2022-11-15T00:08:57;10.60;99.90
28632;DHT22;15818;45.534;5.292;2022-11-15T00:11:23;10.60;99.90
28632;DHT22;15818;45.534;5.292;2022-11-15T00:13:49;10.60;99.90
28632;DHT22;15818;45.534;5.292;2022-11-15T00:16:15;10.70;99.90
28632;DHT22;15818;45.534;5.292;2022-11-15T00:18:40;10.60;99.90
28632;DHT22;15818;45.534;5.292;2022-11-15T00:21:07;10.60;99.90
28632;DHT22;15818;45.534;5.292;2022-11-15T00:23:33;10.60;99.90
28632;DHT22;15818;45.534;5.292;2022-11-15T00:25:59;10.60;99.90
28632;DHT22;15818;45.534;5.292;2022-11-15T00:28:25;10.50;99.90
28632;DHT22;15818;45.534;5.292;2022-11-15T00:30:50;10.50;99.90
28632;DHT22;15818;45.534;5.292;2022-11-15T00:33:16;10.50;99.90
28632;DHT22;15818;45.534;5.292;2022-11-15T00:35:42;10.60;99.90
28632;DHT22;15818;45.534;5.292;2022-11-15T00:38:07;10.60;99.90
28632;DHT22;15818;45.534;5.292;2022-11-15T00:40:33;10.60;99.90
28632;DHT22;15818;45.534;5.292;2022-11-15T00:42:59;10.70;99.90
28632;DHT22;15818;45.534;5.292;2022-11-15T00:45:24;10.80;99.90
28632;DHT22;15818;45.534;5.292;2022-11-15T00:47:50;10.80;99.90
28632;DHT22;15818;45.534;5.292;2022-11-15T00:50:16;10.80;99.90
28632;DHT22;15818;45.534;5.292;2022-11-15T00:52:42;10.80;99.90
28632;DHT22;15818;45.534;5.292;2022-11-15T00:55:09;10.80;99.90
28632;DHT22;15818;45.534;5.292;2022-11-15T00:57:35;10.80;99.90
28632;DHT22;15818;45.534;5.292;2022-11-15T01:00:00;10.80;99.90
28632;DHT22;15818;45.534;5.292;2022-11-15T01:02:26;10.80;99.90
28632;DHT22;15818;45.534;5.292;2022-11-15T01:04:53;10.80;99.90
28632;DHT22;15818;45.534;5.292;2022-11-15T01:07:18;10.80;99.90
28632;DHT22;15818;45.534;5.292;2022-11-15T01:09:44;10.80;99.90
28632;DHT22;15818;45.534;5.292;2022-11-15T01:12:09;10.80;99.90
28632;DHT22;15818;45.534;5.292;2022-11-15T01:14:35;10.70;99.90
28632;DHT22;15818;45.534;5.292;2022-11-15T01:17:00;10.60;99.90
28632;DHT22;15818;45.534;5.292;2022-11-15T01:19:26;10.70;99.90
28632;DHT22;15818;45.534;5.292;2022-11-15T01:21:52;10.70;99.90
28632;DHT22;15818;45.534;5.292;2022-11-15T01:24:17;10.70;99.90
28632;DHT22;15818;45.534;5.292;2022-11-15T01:26:43;10.70;99.90
28632;DHT22;15818;45.534;5.292;2022-11-15T01:29:08;10.70;99.90
28632;DHT22;15818;45.534;5.292;2022-11-15T01:31:34;10.70;99.90
28632;DHT22;15818;45.534;5.292;2022-11-15T01:33:59;10.70;99.90
28632;DHT22;15818;45.534;5.292;2022-11-15T01:36:25;10.70;99.90
28632;DHT22;15818;45.534;5.292;2022-11-15T01:38:54;10.70;99.90
28632;DHT22;15818;45.534;5.292;2022-11-15T01:41:22;10.70;99.90
28632;DHT22;15818;45.534;5.292;2022-11-15T01:43:54;10.70;99.90
28632;DHT22;15818;45.534;5.292;2022-11-15T01:46:30;10.70;99.90
28632;DHT22;15818;45.534;5.292;2022-11-15T01:48:58;10.70;99.90
28632;DHT22;15818;45.534;5.292;2022-11-15T01:51:26;10.70;99.90
28632;DHT22;15818;45.534;5.292;2022-11-15T01:53:55;10.70;99.90
28632;DHT22;15818;45.534;5.292;2022-11-15T01:56:22;10.70;99.90
28632;DHT22;15818;45.534;5.292;2022-11-15T01:58:48;10.60;99.90
28632;DHT22;15818;45.534;5.292;2022-11-15T02:01:16;10.60;99.90
28632;DHT22;15818;45.534;5.292;2022-11-15T02:03:50;10.60;99.90
28632;DHT22;15818;45.534;5.292;2022-11-15T02:06:17;10.60;99.90
28632;DHT22;15818;45.534;5.292;2022-11-15T02:08:44;10.60;99.90
28632;DHT22;15818;45.534;5.292;2022-11-15T02:11:10;10.60;99.90
28632;DHT22;15818;45.534;5.292;2022-11-15T02:13:35;10.60;99.90
28632;DHT22;15818;45.534;5.292;2022-11-15T02:16:25;10.60;99.90
28632;DHT22;15818;45.534;5.292;2022-11-15T02:19:13;10.60;99.90
28632;DHT22;15818;45.534;5.292;2022-11-15T02:24:25;10.70;99.90
28632;DHT22;15818;45.534;5.292;2022-11-15T02:29:34;10.70;99.90
28632;DHT22;15818;45.534;5.292;2022-11-15T02:32:06;10.70;99.90
28632;DHT22;15818;45.534;5.292;2022-11-15T02:34:35;10.80;99.90
28632;DHT22;15818;45.534;5.292;2022-11-15T02:37:07;10.70;99.90
28632;DHT22;15818;45.534;5.292;2022-11-15T02:39:46;10.70;99.90
28632;DHT22;15818;45.534;5.292;2022-11-15T02:42:17;10.70;99.90
28632;DHT22;15818;45.534;5.292;2022-11-15T02:45:03;10.80;99.90
28632;DHT22;15818;45.534;5.292;2022-11-15T02:47:32;10.80;99.90
28632;DHT22;15818;45.534;5.292;2022-11-15T02:50:00;10.80;99.90
28632;DHT22;15818;45.534;5.292;2022-11-15T02:52:26;10.80;99.90
28632;DHT22;15818;45.534;5.292;2022-11-15T02:54:53;10.80;99.90
28632;DHT22;15818;45.534;5.292;2022-11-15T02:57:19;10.80;99.90
28632;DHT22;15818;45.534;5.292;2022-11-15T02:59:56;10.90;99.90
28632;DHT22;15818;45.534;5.292;2022-11-15T03:02:44;10.80;99.90
28632;DHT22;15818;45.534;5.292;2022-11-15T03:08:02;10.80;99.90
28632;DHT22;15818;45.534;5.292;2022-11-15T03:10:32;10.80;99.90
28632;DHT22;15818;45.534;5.292;2022-11-15T03:13:05;10.80;99.90
28632;DHT22;15818;45.534;5.292;2022-11-15T03:15:37;10.70;99.90
28632;DHT22;15818;45.534;5.292;2022-11-15T03:18:22;10.70;99.90
28632;DHT22;15818;45.534;5.292;2022-11-15T03:20:50;10.80;99.90
28632;DHT22;15818;45.534;5.292;2022-11-15T03:23:16;10.80;99.90
28632;DHT22;15818;45.534;5.292;2022-11-15T03:25:43;10.80;99.90
28632;DHT22;15818;45.534;5.292;2022-11-15T03:28:11;10.80;99.90
28632;DHT22;15818;45.534;5.292;2022-11-15T03:30:37;10.80;99.90
28632;DHT22;15818;45.534;5.292;2022-11-15T03:33:05;10.80;99.90
28632;DHT22;15818;45.534;5.292;2022-11-15T03:35:33;10.80;99.90
28632;DHT22;15818;45.534;5.292;2022-11-15T03:38:04;10.80;99.90
28632;DHT22;15818;45.534;5.292;2022-11-15T03:40:42;10.70;99.90
28632;DHT22;15818;45.534;5.292;2022-11-15T03:43:28;10.80;99.90
28632;DHT22;15818;45.534;5.292;2022-11-15T03:46:01;10.80;99.90
28632;DHT22;15818;45.534;5.292;2022-11-15T03:48:30;10.80;99.90
28632;DHT22;15818;45.534;5.292;2022-11-15T03:50:58;10.70;99.90
28632;DHT22;15818;45.534;5.292;2022-11-15T03:53:24;10.70;99.90
28632;DHT22;15818;45.534;5.292;2022-11-15T03:55:50;10.70;99.90
28632;DHT22;15818;45.534;5.292;2022-11-15T03:58:15;10.70;99.90
28632;DHT22;15818;45.534;5.292;2022-11-15T04:00:41;10.80;99.90
28632;DHT22;15818;45.534;5.292;2022-11-15T04:03:07;10.70;99.90
28632;DHT22;15818;45.534;5.292;2022-11-15T04:05:33;10.80;99.90
28632;DHT22;15818;45.534;5.292;2022-11-15T04:07:59;10.80;99.90
28632;DHT22;15818;45.534;5.292;2022-11-15T04:10:24;10.80;99.90
28632;DHT22;15818;45.534;5.292;2022-11-15T04:12:50;10.80;99.90
28632;DHT22;15818;45.534;5.292;2022-11-15T04:15:19;10.70;99.90
28632;DHT22;15818;45.534;5.292;2022-11-15T04:17:46;10.70;99.90
28632;DHT22;15818;45.534;5.292;2022-11-15T04:22:59;10.80;99.90
28632;DHT22;15818;45.534;5.292;2022-11-15T04:25:43;10.90;99.90
28632;DHT22;15818;45.534;5.292;2022-11-15T04:28:09;10.90;99.90
28632;DHT22;15818;45.534;5.292;2022-11-15T04:30:35;10.90;99.90
28632;DHT22;15818;45.534;5.292;2022-11-15T04:33:01;11.00;99.90
28632;DHT22;15818;45.534;5.292;2022-11-15T04:35:26;11.00;99.90
28632;DHT22;15818;45.534;5.292;2022-11-15T04:37:52;11.00;99.90
28632;DHT22;15818;45.534;5.292;2022-11-15T04:40:18;11.00;99.90
28632;DHT22;15818;45.534;5.292;2022-11-15T04:42:43;11.00;99.90
28632;DHT22;15818;45.534;5.292;2022-11-15T04:45:09;11.00;99.90
28632;DHT22;15818;45.534;5.292;2022-11-15T04:47:35;11.00;99.90
28632;DHT22;15818;45.534;5.292;2022-11-15T04:50:00;10.90;99.90
28632;DHT22;15818;45.534;5.292;2022-11-15T04:52:26;10.80;99.90
28632;DHT22;15818;45.534;5.292;2022-11-15T04:54:52;10.80;99.90
28632;DHT22;15818;45.534;5.292;2022-11-15T04:57:17;10.80;99.90
28632;DHT22;15818;45.534;5.292;2022-11-15T04:59:43;10.80;99.90
28632;DHT22;15818;45.534;5.292;2022-11-15T05:02:08;10.90;99.90
28632;DHT22;15818;45.534;5.292;2022-11-15T05:04:34;10.90;99.90
28632;DHT22;15818;45.534;5.292;2022-11-15T05:06:59;10.90;99.90
28632;DHT22;15818;45.534;5.292;2022-11-15T05:09:25;10.90;99.90
28632;DHT22;15818;45.534;5.292;2022-11-15T05:11:51;10.80;99.90
28632;DHT22;15818;45.534;5.292;2022-11-15T05:14:16;10.90;99.90
28632;DHT22;15818;45.534;5.292;2022-11-15T05:16:42;10.90;99.90
28632;DHT22;15818;45.534;5.292;2022-11-15T05:19:08;10.80;99.90
28632;DHT22;15818;45.534;5.292;2022-11-15T05:21:34;10.80;99.90
28632;DHT22;15818;45.534;5.292;2022-11-15T05:24:00;10.80;99.90
28632;DHT22;15818;45.534;5.292;2022-11-15T05:26:26;10.90;99.90
28632;DHT22;15818;45.534;5.292;2022-11-15T05:28:55;10.90;99.90
28632;DHT22;15818;45.534;5.292;2022-11-15T05:31:21;10.90;99.90
28632;DHT22;15818;45.534;5.292;2022-11-15T05:33:47;10.90;99.90
28632;DHT22;15818;45.534;5.292;2022-11-15T05:36:18;10.90;99.90
28632;DHT22;15818;45.534;5.292;2022-11-15T05:38:45;11.00;99.90
28632;DHT22;15818;45.534;5.292;2022-11-15T05:41:11;11.00;99.90
28632;DHT22;15818;45.534;5.292;2022-11-15T05:43:37;10.90;99.90
28632;DHT22;15818;45.534;5.292;2022-11-15T05:46:04;10.90;99.90
28632;DHT22;15818;45.534;5.292;2022-11-15T05:48:31;10.90;99.90
28632;DHT22;15818;45.534;5.292;2022-11-15T05:50:56;10.90;99.90
28632;DHT22;15818;45.534;5.292;2022-11-15T05:53:22;10.90;99.90
28632;DHT22;15818;45.534;5.292;2022-11-15T05:55:49;10.90;99.90
28632;DHT22;15818;45.534;5.292;2022-11-15T05:58:15;10.80;99.90
28632;DHT22;15818;45.534;5.292;2022-11-15T06:00:40;10.80;99.90
28632;DHT22;15818;45.534;5.292;2022-11-15T06:03:08;10.80;99.90
28632;DHT22;15818;45.534;5.292;2022-11-15T06:05:34;10.80;99.90
28632;DHT22;15818;45.534;5.292;2022-11-15T06:07:59;10.80;99.90
28632;DHT22;15818;45.534;5.292;2022-11-15T06:10:25;10.80;99.90
28632;DHT22;15818;45.534;5.292;2022-11-15T06:13:01;10.80;99.90
28632;DHT22;15818;45.534;5.292;2022-11-15T06:15:27;10.80;99.90
28632;DHT22;15818;45.534;5.292;2022-11-15T06:17:53;10.70;99.90
28632;DHT22;15818;45.534;5.292;2022-11-15T06:20:23;10.80;99.90
28632;DHT22;15818;45.534;5.292;2022-11-15T06:22:48;10.70;99.90
28632;DHT22;15818;45.534;5.292;2022-11-15T06:25:14;10.70;99.90
28632;DHT22;15818;45.534;5.292;2022-11-15T06:27:39;10.70;99.90
28632;DHT22;15818;45.534;5.292;2022-11-15T06:30:05;10.80;99.90
28632;DHT22;15818;45.534;5.292;2022-11-15T06:32:31;10.80;99.90
28632;DHT22;15818;45.534;5.292;2022-11-15T06:34:56;10.90;99.90
28632;DHT22;15818;45.534;5.292;2022-11-15T06:37:22;10.90;99.90
28632;DHT22;15818;45.534;5.292;2022-11-15T06:39:47;10.90;99.90
28632;DHT22;15818;45.534;5.292;2022-11-15T06:42:13;10.90;99.90
28632;DHT22;15818;45.534;5.292;2022-11-15T06:44:38;10.90;99.90
28632;DHT22;15818;45.534;5.292;2022-11-15T06:47:04;10.90;99.90
28632;DHT22;15818;45.534;5.292;2022-11-15T06:49:29;10.90;99.90
28632;DHT22;15818;45.534;5.292;2022-11-15T06:51:55;11.00;99.90
28632;DHT22;15818;45.534;5.292;2022-11-15T06:54:21;11.00;99.90
28632;DHT22;15818;45.534;5.292;2022-11-15T06:56:47;10.90;99.90
28632;DHT22;15818;45.534;5.292;2022-11-15T06:59:13;10.90;99.90
28632;DHT22;15818;45.534;5.292;2022-11-15T07:01:38;10.90;99.90
28632;DHT22;15818;45.534;5.292;2022-11-15T07:04:04;10.90;99.90
28632;DHT22;15818;45.534;5.292;2022-11-15T07:06:29;10.80;99.90
28632;DHT22;15818;45.534;5.292;2022-11-15T07:08:55;10.90;99.90
28632;DHT22;15818;45.534;5.292;2022-11-15T07:11:20;10.80;99.90
28632;DHT22;15818;45.534;5.292;2022-11-15T07:13:46;10.90;99.90
28632;DHT22;15818;45.534;5.292;2022-11-15T07:16:12;10.90;99.90
28632;DHT22;15818;45.534;5.292;2022-11-15T07:18:38;11.00;99.90
28632;DHT22;15818;45.534;5.292;2022-11-15T07:21:05;11.00;99.90
28632;DHT22;15818;45.534;5.292;2022-11-15T07:23:31;11.00;99.90
28632;DHT22;15818;45.534;5.292;2022-11-15T07:25:57;11.00;99.90
28632;DHT22;15818;45.534;5.292;2022-11-15T07:28:23;11.20;99.90
28632;DHT22;15818;45.534;5.292;2022-11-15T07:30:49;11.20;99.90
28632;DHT22;15818;45.534;5.292;2022-11-15T07:33:14;11.20;99.90
28632;DHT22;15818;45.534;5.292;2022-11-15T07:35:40;11.20;99.90
28632;DHT22;15818;45.534;5.292;2022-11-15T07:38:05;11.30;99.90
28632;DHT22;15818;45.534;5.292;2022-11-15T07:40:31;11.20;99.90
28632;DHT22;15818;45.534;5.292;2022-11-15T07:43:01;11.20;99.90
28632;DHT22;15818;45.534;5.292;2022-11-15T07:45:26;11.30;99.90
28632;DHT22;15818;45.534;5.292;2022-11-15T07:47:52;11.30;99.90
28632;DHT22;15818;45.534;5.292;2022-11-15T07:50:18;11.40;99.90
28632;DHT22;15818;45.534;5.292;2022-11-15T07:52:44;11.40;99.90
28632;DHT22;15818;45.534;5.292;2022-11-15T07:55:10;11.40;99.90
28632;DHT22;15818;45.534;5.292;2022-11-15T07:57:36;11.40;99.90
28632;DHT22;15818;45.534;5.292;2022-11-15T08:00:03;11.40;99.90
28632;DHT22;15818;45.534;5.292;2022-11-15T08:02:29;11.40;99.90
28632;DHT22;15818;45.534;5.292;2022-11-15T08:04:54;11.40;99.90
28632;DHT22;15818;45.534;5.292;2022-11-15T08:07:20;11.50;99.90
28632;DHT22;15818;45.534;5.292;2022-11-15T08:09:45;11.50;99.90
28632;DHT22;15818;45.534;5.292;2022-11-15T08:12:11;11.60;99.90
28632;DHT22;15818;45.534;5.292;2022-11-15T08:14:37;11.60;99.90
28632;DHT22;15818;45.534;5.292;2022-11-15T08:17:02;11.60;99.90
28632;DHT22;15818;45.534;5.292;2022-11-15T08:19:28;11.60;99.90
28632;DHT22;15818;45.534;5.292;2022-11-15T08:21:53;11.60;99.90
28632;DHT22;15818;45.534;5.292;2022-11-15T08:24:19;11.60;99.90
28632;DHT22;15818;45.534;5.292;2022-11-15T08:26:45;11.70;99.90
28632;DHT22;15818;45.534;5.292;2022-11-15T08:29:11;11.70;99.90
28632;DHT22;15818;45.534;5.292;2022-11-15T08:31:36;11.70;99.90
28632;DHT22;15818;45.534;5.292;2022-11-15T08:34:02;11.60;99.90
28632;DHT22;15818;45.534;5.292;2022-11-15T08:36:28;11.70;99.90
28632;DHT22;15818;45.534;5.292;2022-11-15T08:38:54;11.70;99.90
28632;DHT22;15818;45.534;5.292;2022-11-15T08:41:27;11.80;99.90
28632;DHT22;15818;45.534;5.292;2022-11-15T08:43:53;11.80;99.90
28632;DHT22;15818;45.534;5.292;2022-11-15T08:46:19;11.80;99.90
28632;DHT22;15818;45.534;5.292;2022-11-15T08:48:44;11.90;99.90
28632;DHT22;15818;45.534;5.292;2022-11-15T08:51:10;11.90;99.90
28632;DHT22;15818;45.534;5.292;2022-11-15T08:53:35;11.90;99.90
28632;DHT22;15818;45.534;5.292;2022-11-15T08:56:01;11.90;99.90
28632;DHT22;15818;45.534;5.292;2022-11-15T08:58:27;11.90;99.90
28632;DHT22;15818;45.534;5.292;2022-11-15T09:00:53;11.90;99.90
28632;DHT22;15818;45.534;5.292;2022-11-15T09:03:18;11.90;99.90
28632;DHT22;15818;45.534;5.292;2022-11-15T09:05:44;11.90;99.90
28632;DHT22;15818;45.534;5.292;2022-11-15T09:08:09;11.90;99.90
28632;DHT22;15818;45.534;5.292;2022-11-15T09:10:36;12.00;99.90
28632;DHT22;15818;45.534;5.292;2022-11-15T09:13:02;12.10;99.90
28632;DHT22;15818;45.534;5.292;2022-11-15T09:15:27;12.10;99.90
28632;DHT22;15818;45.534;5.292;2022-11-15T09:17:53;12.10;99.90
28632;DHT22;15818;45.534;5.292;2022-11-15T09:20:19;12.10;99.90
28632;DHT22;15818;45.534;5.292;2022-11-15T09:22:44;12.20;99.90
28632;DHT22;15818;45.534;5.292;2022-11-15T09:25:10;12.20;99.90
28632;DHT22;15818;45.534;5.292;2022-11-15T09:27:35;12.20;99.90
28632;DHT22;15818;45.534;5.292;2022-11-15T09:30:01;12.20;99.90
28632;DHT22;15818;45.534;5.292;2022-11-15T09:32:30;12.20;99.90
28632;DHT22;15818;45.534;5.292;2022-11-15T09:34:55;12.20;99.90
28632;DHT22;15818;45.534;5.292;2022-11-15T09:37:21;12.30;99.90
28632;DHT22;15818;45.534;5.292;2022-11-15T09:39:46;12.30;99.90
28632;DHT22;15818;45.534;5.292;2022-11-15T09:45:04;12.30;99.90
28632;DHT22;15818;45.534;5.292;2022-11-15T09:47:39;12.30;99.90
28632;DHT22;15818;45.534;5.292;2022-11-15T09:50:10;12.40;99.90
28632;DHT22;15818;45.534;5.292;2022-11-15T09:52:36;12.40;99.90
28632;DHT22;15818;45.534;5.292;2022-11-15T09:55:03;12.30;99.90
28632;DHT22;15818;45.534;5.292;2022-11-15T09:57:41;12.30;99.90
28632;DHT22;15818;45.534;5.292;2022-11-15T10:00:17;12.40;99.90
28632;DHT22;15818;45.534;5.292;2022-11-15T10:02:58;12.30;99.90
28632;DHT22;15818;45.534;5.292;2022-11-15T10:05:28;12.40;99.90
28632;DHT22;15818;45.534;5.292;2022-11-15T10:10:36;12.50;99.90
28632;DHT22;15818;45.534;5.292;2022-11-15T10:13:03;12.50;99.90
28632;DHT22;15818;45.534;5.292;2022-11-15T10:15:29;12.50;99.90
28632;DHT22;15818;45.534;5.292;2022-11-15T10:18:06;12.50;99.90
28632;DHT22;15818;45.534;5.292;2022-11-15T10:20:55;12.50;99.90
28632;DHT22;15818;45.534;5.292;2022-11-15T10:23:19;12.60;99.90
28632;DHT22;15818;45.534;5.292;2022-11-15T10:25:45;12.50;99.90
28632;DHT22;15818;45.534;5.292;2022-11-15T10:28:27;12.50;99.90
28632;DHT22;15818;45.534;5.292;2022-11-15T10:30:53;12.50;99.90
28632;DHT22;15818;45.534;5.292;2022-11-15T10:33:27;12.50;99.90
28632;DHT22;15818;45.534;5.292;2022-11-15T10:41:13;12.50;99.90
28632;DHT22;15818;45.534;5.292;2022-11-15T10:43:39;12.60;99.90
28632;DHT22;15818;45.534;5.292;2022-11-15T10:46:16;12.60;99.90
28632;DHT22;15818;45.534;5.292;2022-11-15T10:48:44;12.70;99.90
28632;DHT22;15818;45.534;5.292;2022-11-15T10:51:19;12.60;99.90
28632;DHT22;15818;45.534;5.292;2022-11-15T10:53:45;12.70;99.90
28632;DHT22;15818;45.534;5.292;2022-11-15T10:56:12;12.60;99.90
28632;DHT22;15818;45.534;5.292;2022-11-15T10:58:39;12.60;99.90
28632;DHT22;15818;45.534;5.292;2022-11-15T11:01:14;12.70;99.90
28632;DHT22;15818;45.534;5.292;2022-11-15T11:03:40;12.60;99.90
28632;DHT22;15818;45.534;5.292;2022-11-15T11:06:08;12.60;99.90
28632;DHT22;15818;45.534;5.292;2022-11-15T11:08:34;12.70;99.90
28632;DHT22;15818;45.534;5.292;2022-11-15T11:11:01;12.60;99.90
28632;DHT22;15818;45.534;5.292;2022-11-15T11:13:32;12.50;99.90
28632;DHT22;15818;45.534;5.292;2022-11-15T11:21:08;12.50;99.90
28632;DHT22;15818;45.534;5.292;2022-11-15T11:29:17;12.50;99.90
28632;DHT22;15818;45.534;5.292;2022-11-15T11:36:48;12.50;99.90
28632;DHT22;15818;45.534;5.292;2022-11-15T11:39:29;12.60;99.90
28632;DHT22;15818;45.534;5.292;2022-11-15T11:42:13;12.60;99.90
28632;DHT22;15818;45.534;5.292;2022-11-15T11:52:00;12.70;99.90
28632;DHT22;15818;45.534;5.292;2022-11-15T11:56:56;12.80;99.90
28632;DHT22;15818;45.534;5.292;2022-11-15T12:02:19;12.80;99.90
28632;DHT22;15818;45.534;5.292;2022-11-15T12:04:48;12.80;99.90
28632;DHT22;15818;45.534;5.292;2022-11-15T12:07:25;12.80;99.90
28632;DHT22;15818;45.534;5.292;2022-11-15T12:10:11;12.80;99.90
28632;DHT22;15818;45.534;5.292;2022-11-15T12:15:24;12.80;99.90
28632;DHT22;15818;45.534;5.292;2022-11-15T12:17:51;12.70;99.90
28632;DHT22;15818;45.534;5.292;2022-11-15T12:20:18;12.70;99.90
28632;DHT22;15818;45.534;5.292;2022-11-15T12:25:15;12.80;99.90
28632;DHT22;15818;45.534;5.292;2022-11-15T12:27:44;12.80;99.90
28632;DHT22;15818;45.534;5.292;2022-11-15T12:30:14;12.80;99.90
28632;DHT22;15818;45.534;5.292;2022-11-15T12:32:51;12.90;99.90
28632;DHT22;15818;45.534;5.292;2022-11-15T12:35:23;13.00;99.90
28632;DHT22;15818;45.534;5.292;2022-11-15T12:37:50;13.00;99.90
28632;DHT22;15818;45.534;5.292;2022-11-15T12:47:53;13.30;99.90
28632;DHT22;15818;45.534;5.292;2022-11-15T12:53:25;13.20;99.90
28632;DHT22;15818;45.534;5.292;2022-11-15T13:01:08;13.10;99.90
28632;DHT22;15818;45.534;5.292;2022-11-15T13:03:34;13.00;99.90
28632;DHT22;15818;45.534;5.292;2022-11-15T13:06:02;13.00;99.90
28632;DHT22;15818;45.534;5.292;2022-11-15T13:08:35;13.00;99.90
28632;DHT22;15818;45.534;5.292;2022-11-15T13:11:37;12.90;99.90
28632;DHT22;15818;45.534;5.292;2022-11-15T13:13:46;13.00;99.90
28632;DHT22;15818;45.534;5.292;2022-11-15T13:16:13;13.00;99.90
28632;DHT22;15818;45.534;5.292;2022-11-15T13:18:43;12.90;99.90
28632;DHT22;15818;45.534;5.292;2022-11-15T13:21:19;12.90;99.90
28632;DHT22;15818;45.534;5.292;2022-11-15T13:24:03;13.00;99.90
28632;DHT22;15818;45.534;5.292;2022-11-15T13:26:29;13.10;99.90
28632;DHT22;15818;45.534;5.292;2022-11-15T13:28:56;13.20;99.90
28632;DHT22;15818;45.534;5.292;2022-11-15T13:31:34;13.30;99.90
28632;DHT22;15818;45.534;5.292;2022-11-15T13:36:45;13.30;99.90
28632;DHT22;15818;45.534;5.292;2022-11-15T13:39:25;13.40;99.90
28632;DHT22;15818;45.534;5.292;2022-11-15T13:41:51;13.40;99.90
28632;DHT22;15818;45.534;5.292;2022-11-15T13:44:21;13.40;99.90
28632;DHT22;15818;45.534;5.292;2022-11-15T13:46:46;13.50;99.90
28632;DHT22;15818;45.534;5.292;2022-11-15T13:49:12;13.50;99.90
28632;DHT22;15818;45.534;5.292;2022-11-15T13:51:47;13.50;99.90
28632;DHT22;15818;45.534;5.292;2022-11-15T13:54:17;13.50;99.90
28632;DHT22;15818;45.534;5.292;2022-11-15T13:56:44;13.60;99.90
28632;DHT22;15818;45.534;5.292;2022-11-15T13:59:15;13.60;99.90
28632;DHT22;15818;45.534;5.292;2022-11-15T14:01:42;13.70;99.90
28632;DHT22;15818;45.534;5.292;2022-11-15T14:04:12;13.70;99.90
28632;DHT22;15818;45.534;5.292;2022-11-15T14:06:44;13.60;99.90
28632;DHT22;15818;45.534;5.292;2022-11-15T14:11:36;13.60;99.90
28632;DHT22;15818;45.534;5.292;2022-11-15T14:16:34;13.70;99.90
28632;DHT22;15818;45.534;5.292;2022-11-15T14:19:01;13.70;99.90
28632;DHT22;15818;45.534;5.292;2022-11-15T14:21:27;13.70;99.90
28632;DHT22;15818;45.534;5.292;2022-11-15T14:23:53;13.70;99.90
28632;DHT22;15818;45.534;5.292;2022-11-15T14:26:38;13.70;99.90
28632;DHT22;15818;45.534;5.292;2022-11-15T14:31:48;13.80;99.90
28632;DHT22;15818;45.534;5.292;2022-11-15T14:34:14;13.80;99.90
28632;DHT22;15818;45.534;5.292;2022-11-15T14:36:39;13.80;99.90
28632;DHT22;15818;45.534;5.292;2022-11-15T14:39:05;13.80;99.90
28632;DHT22;15818;45.534;5.292;2022-11-15T14:41:34;13.80;99.90
28632;DHT22;15818;45.534;5.292;2022-11-15T14:43:59;13.80;99.90
28632;DHT22;15818;45.534;5.292;2022-11-15T14:46:25;13.70;99.90
28632;DHT22;15818;45.534;5.292;2022-11-15T14:48:50;13.70;99.90
28632;DHT22;15818;45.534;5.292;2022-11-15T14:51:17;13.70;99.90
28632;DHT22;15818;45.534;5.292;2022-11-15T14:53:43;13.70;99.90
28632;DHT22;15818;45.534;5.292;2022-11-15T14:56:09;13.70;99.90
28632;DHT22;15818;45.534;5.292;2022-11-15T14:58:34;13.60;99.90
28632;DHT22;15818;45.534;5.292;2022-11-15T15:01:01;13.60;99.90
28632;DHT22;15818;45.534;5.292;2022-11-15T15:03:27;13.70;99.90
28632;DHT22;15818;45.534;5.292;2022-11-15T15:05:53;13.70;99.90
28632;DHT22;15818;45.534;5.292;2022-11-15T15:08:19;13.70;99.90
28632;DHT22;15818;45.534;5.292;2022-11-15T15:10:45;13.70;99.90
28632;DHT22;15818;45.534;5.292;2022-11-15T15:13:15;13.60;99.90
28632;DHT22;15818;45.534;5.292;2022-11-15T15:15:41;13.60;99.90
28632;DHT22;15818;45.534;5.292;2022-11-15T15:18:07;13.70;99.90
28632;DHT22;15818;45.534;5.292;2022-11-15T15:20:37;13.70;99.90
28632;DHT22;15818;45.534;5.292;2022-11-15T15:23:03;13.70;99.90
28632;DHT22;15818;45.534;5.292;2022-11-15T15:25:31;13.60;99.90
28632;DHT22;15818;45.534;5.292;2022-11-15T15:27:58;13.60;99.90
28632;DHT22;15818;45.534;5.292;2022-11-15T15:30:24;13.50;99.90
28632;DHT22;15818;45.534;5.292;2022-11-15T15:32:49;13.60;99.90
28632;DHT22;15818;45.534;5.292;2022-11-15T15:35:15;13.60;99.90
28632;DHT22;15818;45.534;5.292;2022-11-15T15:37:41;13.60;99.90
28632;DHT22;15818;45.534;5.292;2022-11-15T15:40:17;13.50;99.90
28632;DHT22;15818;45.534;5.292;2022-11-15T15:42:43;13.50;99.90
28632;DHT22;15818;45.534;5.292;2022-11-15T15:45:09;13.40;99.90
28632;DHT22;15818;45.534;5.292;2022-11-15T15:47:35;13.40;99.90
28632;DHT22;15818;45.534;5.292;2022-11-15T15:50:00;13.40;99.90
28632;DHT22;15818;45.534;5.292;2022-11-15T15:52:26;13.30;99.90
28632;DHT22;15818;45.534;5.292;2022-11-15T15:54:51;13.30;99.90
28632;DHT22;15818;45.534;5.292;2022-11-15T15:57:17;13.30;99.90
28632;DHT22;15818;45.534;5.292;2022-11-15T15:59:43;13.30;99.90
28632;DHT22;15818;45.534;5.292;2022-11-15T16:02:12;13.30;99.90
28632;DHT22;15818;45.534;5.292;2022-11-15T16:04:37;13.30;99.90
28632;DHT22;15818;45.534;5.292;2022-11-15T16:07:03;13.30;99.90
28632;DHT22;15818;45.534;5.292;2022-11-15T16:09:29;13.20;99.90
28632;DHT22;15818;45.534;5.292;2022-11-15T16:12:13;13.20;99.90
28632;DHT22;15818;45.534;5.292;2022-11-15T16:14:41;13.20;99.90
28632;DHT22;15818;45.534;5.292;2022-11-15T16:17:09;13.20;99.90
28632;DHT22;15818;45.534;5.292;2022-11-15T16:19:36;13.20;99.90
28632;DHT22;15818;45.534;5.292;2022-11-15T16:22:01;13.20;99.90
28632;DHT22;15818;45.534;5.292;2022-11-15T16:24:27;13.20;99.90
28632;DHT22;15818;45.534;5.292;2022-11-15T16:26:53;13.20;99.90
28632;DHT22;15818;45.534;5.292;2022-11-15T16:29:18;13.30;99.90
28632;DHT22;15818;45.534;5.292;2022-11-15T16:31:44;13.20;99.90
28632;DHT22;15818;45.534;5.292;2022-11-15T16:34:09;13.20;99.90
28632;DHT22;15818;45.534;5.292;2022-11-15T16:36:35;13.00;99.90
28632;DHT22;15818;45.534;5.292;2022-11-15T16:39:00;13.00;99.90
28632;DHT22;15818;45.534;5.292;2022-11-15T16:41:29;13.00;99.90
28632;DHT22;15818;45.534;5.292;2022-11-15T16:43:54;12.90;99.90
28632;DHT22;15818;45.534;5.292;2022-11-15T16:46:24;13.00;99.90
28632;DHT22;15818;45.534;5.292;2022-11-15T16:48:50;13.00;99.90
28632;DHT22;15818;45.534;5.292;2022-11-15T16:51:16;13.00;99.90
28632;DHT22;15818;45.534;5.292;2022-11-15T16:53:42;13.00;99.90
28632;DHT22;15818;45.534;5.292;2022-11-15T16:58:42;13.00;99.90